createdAt,value
2022-09-07T00:02:20.856Z,7.05
2022-09-07T00:04:47.594Z,5.95
2022-09-07T00:07:14.068Z,9.60
2022-09-07T00:09:40.699Z,8.88
2022-09-07T00:12:07.371Z,7.95
2022-09-07T00:14:34.769Z,7.78
2022-09-07T00:17:01.242Z,7.38
2022-09-07T00:19:27.759Z,7.40
2022-09-07T00:21:54.239Z,10.82
2022-09-07T00:24:20.787Z,6.88
2022-09-07T00:26:47.326Z,5.40
2022-09-07T00:29:13.978Z,8.77
2022-09-07T00:31:40.614Z,11.63
2022-09-07T00:34:07.265Z,9.55
2022-09-07T00:36:33.916Z,6.22
2022-09-07T00:39:00.993Z,6.70
2022-09-07T00:41:27.727Z,7.75
2022-09-07T00:43:57.096Z,8.25
2022-09-07T00:46:26.750Z,8.70
2022-09-07T00:49:08.033Z,6.93
2022-09-07T00:51:46.201Z,6.97
2022-09-07T00:54:24.237Z,7.60
2022-09-07T00:56:54.796Z,8.35
2022-09-07T00:59:29.146Z,7.32
2022-09-07T01:01:55.931Z,8.35
2022-09-07T01:04:23.689Z,6.78
2022-09-07T01:06:50.758Z,10.50
2022-09-07T01:09:22.191Z,8.02
2022-09-07T01:11:51.151Z,8.50
2022-09-07T01:14:28.915Z,7.15
2022-09-07T01:17:15.392Z,5.88
2022-09-07T01:20:17.739Z,9.40
2022-09-07T01:22:53.321Z,6.65
2022-09-07T01:25:43.626Z,9.07
2022-09-07T01:30:42.171Z,8.18
2022-09-07T01:33:34.273Z,6.47
2022-09-07T01:36:35.707Z,7.43
2022-09-07T01:39:04.490Z,11.57
2022-09-07T01:41:39.071Z,8.05
2022-09-07T01:44:23.622Z,8.60
2022-09-07T01:46:59.017Z,7.65
2022-09-07T01:49:43.357Z,8.50
2022-09-07T01:52:32.112Z,6.28
2022-09-07T01:55:04.411Z,9.93
2022-09-07T01:57:44.526Z,8.43
2022-09-07T02:00:15.550Z,7.22
2022-09-07T02:02:48.840Z,9.35
2022-09-07T02:05:23.840Z,11.15
2022-09-07T02:08:13.424Z,8.85
2022-09-07T02:10:45.327Z,7.97
2022-09-07T02:13:23.662Z,8.20
2022-09-07T02:16:01.899Z,8.55
2022-09-07T02:18:36.391Z,6.70
2022-09-07T02:21:08.533Z,7.68
2022-09-07T02:23:50.961Z,6.65
2022-09-07T02:26:21.856Z,9.93
2022-09-07T02:28:48.842Z,8.80
2022-09-07T02:31:18.349Z,7.32
2022-09-07T02:33:45.107Z,8.02
2022-09-07T02:36:16.219Z,7.45
2022-09-07T02:38:44.431Z,9.75
2022-09-07T02:41:49.650Z,7.88
2022-09-07T02:44:21.271Z,8.57
2022-09-07T02:47:07.305Z,9.23
2022-09-07T02:49:55.366Z,6.85
2022-09-07T02:52:31.171Z,5.93
2022-09-07T02:55:24.427Z,14.23
2022-09-07T02:58:03.034Z,9.02
2022-09-07T03:00:34.109Z,10.13
2022-09-07T03:03:15.617Z,8.52
2022-09-07T03:06:04.716Z,10.63
2022-09-07T03:09:05.517Z,8.05
2022-09-07T03:11:32.389Z,9.35
2022-09-07T03:14:12.106Z,9.57
2022-09-07T03:16:41.397Z,9.20
2022-09-07T03:19:11.519Z,8.60
2022-09-07T03:21:38.164Z,7.28
2022-09-07T03:24:05.336Z,8.70
2022-09-07T03:26:31.945Z,7.35
2022-09-07T03:28:58.926Z,8.57
2022-09-07T03:31:25.976Z,10.32
2022-09-07T03:33:52.565Z,7.35
2022-09-07T03:36:19.105Z,7.38
2022-09-07T03:38:45.640Z,8.00
2022-09-07T03:41:14.708Z,12.02
2022-09-07T03:43:41.404Z,8.98
2022-09-07T03:46:10.518Z,9.73
2022-09-07T03:48:41.503Z,9.35
2022-09-07T03:51:10.416Z,12.10
2022-09-07T03:53:40.128Z,9.20
2022-09-07T03:56:10.556Z,7.82
2022-09-07T03:58:37.612Z,8.27
2022-09-07T04:01:09.176Z,10.95
2022-09-07T04:03:36.258Z,7.55
2022-09-07T04:06:04.235Z,10.13
2022-09-07T04:08:33.003Z,9.93
2022-09-07T04:11:01.600Z,8.18
2022-09-07T04:13:29.595Z,8.90
2022-09-07T04:15:56.679Z,8.57
2022-09-07T04:18:26.091Z,11.98
2022-09-07T04:20:52.809Z,8.97
2022-09-07T04:23:20.137Z,7.55
2022-09-07T04:25:51.616Z,11.18
2022-09-07T04:28:19.872Z,8.02
2022-09-07T04:30:47.517Z,9.80
2022-09-07T04:33:14.713Z,11.38
2022-09-07T04:35:42.601Z,9.93
2022-09-07T04:38:13.745Z,12.25
2022-09-07T04:40:43.876Z,11.30
2022-09-07T04:43:13.029Z,9.55
2022-09-07T04:45:40.248Z,11.05
2022-09-07T04:48:07.394Z,9.30
2022-09-07T04:50:34.108Z,8.82
2022-09-07T04:53:00.836Z,9.15
2022-09-07T04:55:27.569Z,8.52
2022-09-07T04:57:54.230Z,8.38
2022-09-07T05:00:20.779Z,13.20
2022-09-07T05:02:47.544Z,13.53
2022-09-07T05:05:14.452Z,15.57
2022-09-07T05:07:41.178Z,9.90
2022-09-07T05:10:08.457Z,11.95
2022-09-07T05:12:37.257Z,9.23
2022-09-07T05:15:05.109Z,15.90
2022-09-07T05:17:31.785Z,13.30
2022-09-07T05:19:58.508Z,10.68
2022-09-07T05:22:29.164Z,8.40
2022-09-07T05:24:55.955Z,7.83
2022-09-07T05:27:22.841Z,11.35
2022-09-07T05:30:07.046Z,7.55
2022-09-07T05:32:33.880Z,9.20
2022-09-07T05:35:00.567Z,9.70
2022-09-07T05:37:29.750Z,8.10
2022-09-07T05:39:56.974Z,10.65
2022-09-07T05:42:23.963Z,7.85
2022-09-07T05:44:50.606Z,8.63
2022-09-07T05:47:17.953Z,9.32
2022-09-07T05:49:51.032Z,9.95
2022-09-07T05:52:19.579Z,7.82
2022-09-07T05:54:47.336Z,8.68
2022-09-07T05:57:15.531Z,14.27
2022-09-07T05:59:42.240Z,13.82
2022-09-07T06:02:13.706Z,8.98
2022-09-07T06:04:40.569Z,9.82
2022-09-07T06:07:23.781Z,10.00
2022-09-07T06:12:37.201Z,12.05
2022-09-07T06:15:05.391Z,8.93
2022-09-07T06:17:32.255Z,8.38
2022-09-07T06:20:00.387Z,9.35
2022-09-07T06:22:30.756Z,10.20
2022-09-07T06:24:58.201Z,10.35
2022-09-07T06:27:26.956Z,11.00
2022-09-07T06:29:59.140Z,10.77
2022-09-07T06:32:44.561Z,9.77
2022-09-07T06:35:12.477Z,8.13
2022-09-07T06:37:44.319Z,9.48
2022-09-07T06:40:14.492Z,9.25
2022-09-07T06:45:10.109Z,13.07
2022-09-07T06:47:38.367Z,9.48
2022-09-07T06:50:05.220Z,11.38
2022-09-07T06:55:21.236Z,9.18
2022-09-07T06:57:54.486Z,12.15
2022-09-07T07:00:21.387Z,10.93
2022-09-07T07:02:48.148Z,10.07
2022-09-07T07:05:17.798Z,10.43
2022-09-07T07:07:44.533Z,9.38
2022-09-07T07:10:23.719Z,10.43
2022-09-07T07:15:22.062Z,9.05
2022-09-07T07:17:58.100Z,12.10
2022-09-07T07:20:25.974Z,10.30
2022-09-07T07:22:55.707Z,9.30
2022-09-07T07:25:23.005Z,9.65
2022-09-07T07:27:52.741Z,13.48
2022-09-07T07:30:19.660Z,12.50
2022-09-07T07:32:47.059Z,13.55
2022-09-07T07:35:14.295Z,14.20
2022-09-07T07:37:44.113Z,10.82
2022-09-07T07:40:24.416Z,8.45
2022-09-07T07:42:53.188Z,9.90
2022-09-07T07:48:14.531Z,9.32
2022-09-07T07:50:43.748Z,10.68
2022-09-07T07:56:03.271Z,8.73
2022-09-07T07:58:31.793Z,9.65
2022-09-07T08:01:08.461Z,11.52
2022-09-07T08:03:38.263Z,9.40
2022-09-07T08:06:10.137Z,13.25
2022-09-07T08:08:41.051Z,11.05
2022-09-07T08:11:11.039Z,11.40
2022-09-07T08:13:46.978Z,11.60
2022-09-07T08:16:13.822Z,10.43
2022-09-07T08:18:41.029Z,10.60
2022-09-07T08:21:12.972Z,10.90
2022-09-07T08:23:40.255Z,14.73
2022-09-07T08:26:08.026Z,12.63
2022-09-07T08:28:38.252Z,28.27
2022-09-07T08:31:07.280Z,12.38
2022-09-07T08:33:38.322Z,10.77
2022-09-07T08:36:08.807Z,9.50
2022-09-07T08:38:36.643Z,8.55
2022-09-07T08:41:26.636Z,7.47
2022-09-07T08:46:47.685Z,7.10
2022-09-07T08:49:36.831Z,9.85
2022-09-07T08:52:26.082Z,6.43
2022-09-07T08:55:12.082Z,11.60
2022-09-07T08:57:44.173Z,11.85
2022-09-07T09:00:16.670Z,7.07
2022-09-07T09:02:46.445Z,7.10
2022-09-07T09:05:50.228Z,7.28
2022-09-07T09:09:05.026Z,6.97
2022-09-07T09:11:53.420Z,8.10
2022-09-07T09:14:57.118Z,5.07
2022-09-07T09:17:35.659Z,9.00
2022-09-07T09:20:20.814Z,6.00
2022-09-07T09:22:50.436Z,10.23
2022-09-07T09:25:21.369Z,6.50
2022-09-07T09:27:49.400Z,8.82
2022-09-07T09:30:21.746Z,5.00
2022-09-07T09:33:14.193Z,6.88
2022-09-07T09:35:45.433Z,4.35
2022-09-07T09:38:29.262Z,4.53
2022-09-07T09:40:58.083Z,6.22
2022-09-07T09:43:30.373Z,7.43
2022-09-07T09:46:13.658Z,8.82
2022-09-07T09:48:42.879Z,7.22
2022-09-07T09:54:19.605Z,5.63
2022-09-07T09:56:50.066Z,6.30
2022-09-07T10:05:37.374Z,4.68
2022-09-07T10:08:17.895Z,6.65
2022-09-07T10:10:55.533Z,4.78
2022-09-07T10:13:36.882Z,6.28
2022-09-07T10:16:06.587Z,9.95
2022-09-07T10:18:39.920Z,4.78
2022-09-07T10:21:27.866Z,3.95
2022-09-07T10:24:12.633Z,4.65
2022-09-07T10:26:40.483Z,5.50
2022-09-07T10:29:15.232Z,5.95
2022-09-07T10:32:00.993Z,5.43
2022-09-07T10:34:27.594Z,6.38
2022-09-07T10:37:09.574Z,6.70
2022-09-07T10:39:42.951Z,6.85
2022-09-07T10:42:09.766Z,4.07
2022-09-07T10:45:05.797Z,8.50
2022-09-07T10:48:09.962Z,5.57
2022-09-07T10:50:44.679Z,5.45
2022-09-07T10:53:47.643Z,5.50
2022-09-07T10:56:52.659Z,5.45
2022-09-07T10:59:22.101Z,4.15
2022-09-07T11:04:36.934Z,6.50
2022-09-07T11:07:42.370Z,13.00
2022-09-07T11:10:50.625Z,6.45
2022-09-07T11:13:22.931Z,4.95
2022-09-07T11:15:55.317Z,6.07
2022-09-07T11:18:35.306Z,3.58
2022-09-07T11:21:06.491Z,4.63
2022-09-07T11:23:58.099Z,4.38
2022-09-07T11:26:53.827Z,6.95
2022-09-07T11:29:35.555Z,5.32
2022-09-07T11:32:18.116Z,4.90
2022-09-07T11:34:59.020Z,7.50
2022-09-07T11:37:30.897Z,7.57
2022-09-07T11:40:18.177Z,8.25
2022-09-07T11:42:59.650Z,7.10
2022-09-07T11:45:40.283Z,8.38
2022-09-07T11:48:19.876Z,7.03
2022-09-07T11:50:54.238Z,4.20
2022-09-07T11:53:39.345Z,9.15
2022-09-07T11:56:36.283Z,7.15
2022-09-07T11:59:26.590Z,7.15
2022-09-07T12:02:55.254Z,6.25
2022-09-07T12:05:54.146Z,9.52
2022-09-07T12:08:43.726Z,5.35
2022-09-07T12:11:45.140Z,7.07
2022-09-07T12:14:18.045Z,8.65
2022-09-07T12:16:54.749Z,7.03
2022-09-07T12:19:26.603Z,8.85
2022-09-07T12:21:53.032Z,7.63
2022-09-07T12:24:46.812Z,9.35
2022-09-07T12:27:22.536Z,7.30
2022-09-07T12:30:10.374Z,7.95
2022-09-07T12:32:54.848Z,8.98
2022-09-07T12:35:31.939Z,8.20
2022-09-07T12:38:24.247Z,9.10
2022-09-07T12:41:04.000Z,7.63
2022-09-07T12:43:31.703Z,11.23
2022-09-07T12:46:00.829Z,8.02
2022-09-07T12:48:50.153Z,6.47
2022-09-07T12:54:45.521Z,8.45
2022-09-07T12:57:41.212Z,4.90
2022-09-07T13:00:35.907Z,9.13
2022-09-07T13:03:55.100Z,5.28
2022-09-07T13:09:31.541Z,6.65
2022-09-07T13:15:33.224Z,5.40
2022-09-07T13:18:00.732Z,6.20
2022-09-07T13:20:34.795Z,7.63
2022-09-07T13:23:26.293Z,4.07
2022-09-07T13:25:55.332Z,8.17
2022-09-07T13:28:49.183Z,7.93
2022-09-07T13:31:40.036Z,2.92
2022-09-07T13:34:34.573Z,4.68
2022-09-07T13:37:03.192Z,8.68
2022-09-07T13:39:44.585Z,6.97
2022-09-07T13:42:37.860Z,8.43
2022-09-07T13:45:07.480Z,4.55
2022-09-07T13:48:06.395Z,8.57
2022-09-07T13:51:06.010Z,8.15
2022-09-07T13:53:48.365Z,8.55
2022-09-07T13:56:33.303Z,7.50
2022-09-07T13:59:10.854Z,7.50
2022-09-07T14:01:45.309Z,5.05
2022-09-07T14:04:22.677Z,7.07
2022-09-07T14:06:49.169Z,9.98
2022-09-07T14:09:18.634Z,6.20
2022-09-07T14:14:22.068Z,8.35
2022-09-07T14:16:59.124Z,5.90
2022-09-07T14:19:51.957Z,5.57
2022-09-07T14:22:41.947Z,6.18
2022-09-07T14:25:17.857Z,6.28
2022-09-07T14:27:46.953Z,6.18
2022-09-07T14:30:33.286Z,2.58
2022-09-07T14:33:55.854Z,6.45
2022-09-07T14:36:47.984Z,4.43
2022-09-07T14:39:18.995Z,5.07
2022-09-07T14:41:46.520Z,6.90
2022-09-07T14:44:45.381Z,5.65
2022-09-07T14:47:29.250Z,8.27
2022-09-07T14:49:58.215Z,4.07
2022-09-07T14:52:38.016Z,3.67
2022-09-07T14:55:32.478Z,4.45
2022-09-07T14:58:14.058Z,4.60
2022-09-07T15:00:41.219Z,4.88
2022-09-07T15:03:34.455Z,6.72
2022-09-07T15:06:06.299Z,5.28
2022-09-07T15:08:47.535Z,8.00
2022-09-07T15:11:39.527Z,5.35
2022-09-07T15:14:19.666Z,2.55
2022-09-07T15:19:50.365Z,4.63
2022-09-07T15:22:19.940Z,5.85
2022-09-07T15:24:47.584Z,8.18
2022-09-07T15:27:26.716Z,3.78
2022-09-07T15:29:53.300Z,4.82
2022-09-07T15:32:20.070Z,3.60
2022-09-07T15:34:46.951Z,3.55
2022-09-07T15:40:01.861Z,4.45
2022-09-07T15:45:16.062Z,2.75
2022-09-07T15:47:52.176Z,4.30
2022-09-07T15:50:19.486Z,3.97
2022-09-07T15:52:46.550Z,3.63
2022-09-07T15:55:13.550Z,5.03
2022-09-07T15:58:10.666Z,3.58
2022-09-07T16:00:27.050Z,2.58
2022-09-07T16:03:09.419Z,3.28
2022-09-07T16:05:40.271Z,2.22
2022-09-07T16:10:55.553Z,4.43
2022-09-07T16:15:53.313Z,4.18
2022-09-07T16:18:20.376Z,4.00
2022-09-07T16:20:47.325Z,4.07
2022-09-07T16:23:16.393Z,6.78
2022-09-07T16:25:58.671Z,3.42
2022-09-07T16:28:26.712Z,3.33
2022-09-07T16:30:56.618Z,2.85
2022-09-07T16:33:31.234Z,4.57
2022-09-07T16:36:07.496Z,3.90
2022-09-07T16:38:45.533Z,4.22
2022-09-07T16:41:26.538Z,7.40
2022-09-07T16:43:54.634Z,4.50
2022-09-07T16:46:23.424Z,2.88
2022-09-07T16:48:56.279Z,3.40
2022-09-07T16:51:25.428Z,6.63
2022-09-07T16:53:54.280Z,5.28
2022-09-07T16:56:23.554Z,2.72
2022-09-07T16:58:56.464Z,2.70
2022-09-07T17:01:28.961Z,4.18
2022-09-07T17:03:58.419Z,7.40
2022-09-07T17:06:29.675Z,4.60
2022-09-07T17:08:58.308Z,7.35
2022-09-07T17:11:30.974Z,3.47
2022-09-07T17:13:59.044Z,4.85
2022-09-07T17:16:34.824Z,3.80
2022-09-07T17:21:57.986Z,5.45
2022-09-07T17:24:24.576Z,3.63
2022-09-07T17:26:51.024Z,4.20
2022-09-07T17:29:17.610Z,4.63
2022-09-07T17:34:36.656Z,4.68
2022-09-07T17:37:03.256Z,3.10
2022-09-07T17:39:31.478Z,6.05
2022-09-07T17:42:01.268Z,6.50
2022-09-07T17:44:35.433Z,3.95
2022-09-07T17:47:05.109Z,4.85
2022-09-07T17:49:34.828Z,5.00
2022-09-07T17:54:30.957Z,4.55
2022-09-07T17:56:57.537Z,5.90
2022-09-07T18:02:15.826Z,4.03
2022-09-07T18:04:42.961Z,4.80
2022-09-07T18:07:17.619Z,3.47
2022-09-07T18:09:44.561Z,5.45
2022-09-07T18:12:11.308Z,5.50
2022-09-07T18:14:38.018Z,4.05
2022-09-07T18:17:05.386Z,5.15
2022-09-07T18:19:32.142Z,5.97
2022-09-07T18:21:59.074Z,4.70
2022-09-07T18:24:41.700Z,3.13
2022-09-07T18:27:10.394Z,3.83
2022-09-07T18:29:37.779Z,4.00
2022-09-07T18:32:08.647Z,4.63
2022-09-07T18:34:36.496Z,4.05
2022-09-07T18:37:03.079Z,3.85
2022-09-07T18:39:33.480Z,3.30
2022-09-07T18:42:00.133Z,4.25
2022-09-07T18:47:23.303Z,5.80
2022-09-07T18:49:54.896Z,4.93
2022-09-07T18:55:09.994Z,5.68
2022-09-07T18:57:43.312Z,5.93
2022-09-07T19:00:12.587Z,4.38
2022-09-07T19:02:42.421Z,6.03
2022-09-07T19:07:59.520Z,4.70
2022-09-07T19:10:26.023Z,4.57
2022-09-07T19:12:52.536Z,20.88
2022-09-07T19:15:20.510Z,26.70
2022-09-07T19:17:47.034Z,17.35
2022-09-07T19:20:13.668Z,15.57
2022-09-07T19:22:42.725Z,12.60
2022-09-07T19:25:09.854Z,11.15
2022-09-07T19:27:39.688Z,9.77
2022-09-07T19:32:33.038Z,7.00
2022-09-07T19:34:59.770Z,5.75
2022-09-07T19:37:27.674Z,7.28
2022-09-07T19:39:57.570Z,8.32
2022-09-07T19:44:54.416Z,6.70
2022-09-07T19:47:24.650Z,5.40
2022-09-07T19:49:52.322Z,6.47
2022-09-07T19:52:19.042Z,5.60
2022-09-07T19:54:48.936Z,3.80
2022-09-07T19:59:42.323Z,4.40
2022-09-07T20:02:30.575Z,5.60
2022-09-07T20:04:58.886Z,4.65
2022-09-07T20:07:25.522Z,6.35
2022-09-07T20:09:55.159Z,7.88
2022-09-07T20:12:24.446Z,6.57
2022-09-07T20:14:53.322Z,5.75
2022-09-07T20:17:19.790Z,5.75
2022-09-07T20:19:46.328Z,5.18
2022-09-07T20:22:12.730Z,5.00
2022-09-07T20:24:39.965Z,4.90
2022-09-07T20:27:06.708Z,4.25
2022-09-07T20:29:37.527Z,4.10
2022-09-07T20:32:04.341Z,4.03
2022-09-07T20:34:33.556Z,6.25
2022-09-07T20:37:00.825Z,7.50
2022-09-07T20:39:29.947Z,7.15
2022-09-07T20:41:56.536Z,4.33
2022-09-07T20:44:23.296Z,6.30
2022-09-07T20:46:49.913Z,6.10
2022-09-07T20:49:16.463Z,3.30
2022-09-07T20:51:43.112Z,4.97
2022-09-07T20:54:11.217Z,5.68
2022-09-07T20:56:37.933Z,3.28
2022-09-07T20:59:04.621Z,2.90
2022-09-07T21:01:35.030Z,6.75
2022-09-07T21:04:02.009Z,3.65
2022-09-07T21:06:32.781Z,4.63
2022-09-07T21:09:02.868Z,7.32
2022-09-07T21:11:33.784Z,5.20
2022-09-07T21:14:07.230Z,6.15
2022-09-07T21:16:37.286Z,4.35
2022-09-07T21:21:38.539Z,6.93
2022-09-07T21:24:19.809Z,6.38
2022-09-07T21:26:47.765Z,6.72
2022-09-07T21:29:20.426Z,7.13
2022-09-07T21:31:47.747Z,5.57
2022-09-07T21:34:15.180Z,5.32
2022-09-07T21:36:44.704Z,5.63
2022-09-07T21:39:14.456Z,8.30
2022-09-07T21:41:42.542Z,7.65
2022-09-07T21:44:14.109Z,7.97
2022-09-07T21:46:43.623Z,7.05
2022-09-07T21:49:11.338Z,4.82
2022-09-07T21:51:38.293Z,5.57
2022-09-07T21:54:05.044Z,5.60
2022-09-07T21:56:33.611Z,7.60
2022-09-07T21:59:01.696Z,6.65
2022-09-07T22:01:29.702Z,8.55
2022-09-07T22:04:04.547Z,4.10
2022-09-07T22:06:34.100Z,6.15
2022-09-07T22:09:02.158Z,6.75
2022-09-07T22:11:30.035Z,4.53
2022-09-07T22:13:59.145Z,5.50
2022-09-07T22:16:26.111Z,7.93
2022-09-07T22:18:57.041Z,6.93
2022-09-07T22:21:30.290Z,6.03
2022-09-07T22:24:00.215Z,9.43
2022-09-07T22:26:30.133Z,6.00
2022-09-07T22:28:58.359Z,6.55
2022-09-07T22:31:33.408Z,4.22
2022-09-07T22:34:04.983Z,6.78
2022-09-07T22:36:37.179Z,5.35
2022-09-07T22:39:06.813Z,5.95
2022-09-07T22:41:35.731Z,6.70
2022-09-07T22:44:02.851Z,7.88
2022-09-07T22:46:31.678Z,4.68
2022-09-07T22:48:59.296Z,5.38
2022-09-07T22:51:26.806Z,7.60
2022-09-07T22:53:57.573Z,11.93
2022-09-07T22:56:29.782Z,6.22
2022-09-07T22:59:05.252Z,6.28
2022-09-07T23:01:32.220Z,6.53
2022-09-07T23:03:59.625Z,6.60
2022-09-07T23:06:28.803Z,3.92
2022-09-07T23:08:57.378Z,8.95
2022-09-07T23:11:27.811Z,5.95
2022-09-07T23:13:58.903Z,5.18
2022-09-07T23:16:27.400Z,5.22
2022-09-07T23:18:55.339Z,6.72
2022-09-07T23:21:24.805Z,7.13
2022-09-07T23:23:57.167Z,9.55
2022-09-07T23:26:25.685Z,6.40
2022-09-07T23:28:56.487Z,6.95
2022-09-07T23:31:24.746Z,9.88
2022-09-07T23:33:54.226Z,6.20
2022-09-07T23:36:20.792Z,4.95
2022-09-07T23:38:47.643Z,5.88
2022-09-07T23:41:14.675Z,8.00
2022-09-07T23:43:41.521Z,7.50
2022-09-07T23:46:08.036Z,7.10
2022-09-07T23:48:34.782Z,6.45
2022-09-07T23:51:04.928Z,5.35
2022-09-07T23:53:31.805Z,6.72
2022-09-07T23:55:58.691Z,8.48
2022-09-07T23:58:25.259Z,6.85
